Ennis, Ireland
Current Conditions -  °F | °C
As of 6:30 PM on Thursday 30 Oct 2014 (Local Time) from EINN Reporting Station
Broken Clouds Broken Clouds  
Wind Chill: 61°   Ceiling: 1800
Heat Index: 61°   Visibility: 6mi
Dew Point: 55°   Wind: 15mph
Humidity: 82%   Direction: 130°SE
Pressure: 29.74"   Gusts: NA
Location:  52.86°N, 8.99°W
Report Text: EINN 301830Z 13013KT 9999 FEW014 BKN018 BKN024 16/13 Q1007 NOSIG
Loading
Personal Weather Stations






























Interactive Weather Map New forecast layout! Learn more

10-Day Weather Forecast

Advertisements
Track Severe Weather on mobile